Providencia, El Embrujo Airport (SKPV)

NameEl Embrujo Airport
CityProvidencia
CountryColombia
ICAOSKPV
IATAPVA
Altitude3 m
CoordinatesGoogle Map
Live Air TrafficLiveATC.net
METARSKPV 051900Z VRB10KT 9999 BKN017 28/25 A2989
2019-12-05 19:00:00 Wind: North (0°) 5.14 m/s - Visibility: > 10000 m - Temperature: 28 °C - Dew point: 25 °C - Humidity: 83.8% - Pressure: 1012.19 hPa
Statistics

The table below shows the detailed information of all flights to/from Providencia, El Embrujo Airport (SKPV).